Terminal Aerodrome Forecast
Issued by NWS Portland, OR

Home | Current Version | Previous Version | Text Only | Print | Product List | Glossary On
Versions: 1 2 3 4 5 6 7 8 9 10 11 12 13 14 15
000
FTUS46 KPQR 202334
TAFSLE
TAF
KSLE 202334Z 2100/2124 18010KT P6SM VCSH SCT020 BKN035 OVC050
     FM210200 17004KT P6SM SCT025 BKN050
     FM210500 11005KT P6SM BKN050
     FM211000 35003KT P6SM VCSH OVC019
     FM211200 32004KT 4SM -RA OVC019
     FM212100 27011KT P6SM -RA OVC050=

USA.gov is the U.S. government's official web portal to all federal, state and local government web resources and services.